Back to Top

Language: 

My Weather Underground Personal Weather Station Historical Data with Graphs...

Delerius Weather Station Historical Data
Daily Summary for January 15, 2018 Units:  Both    English   Metric
« Previous Day
Next Day »
Daily Weekly Monthly Yearly Custom
  High: Low: Average:
Temperature: 49.8 °F /  9.9 °C 37.9 °F /  3.3 °C 43.6 °F /  6.4 °C
Dew Point: 47.1 °F /  8.4 °C 35.8 °F /  2.1 °C 40.9 °F /  4.9 °C
Humidity: 94 % 83 % 90 %
Wind Speed: 20.0 mph /  32.2 km/h - 12.2 mph /  19.6 km/h
Wind Gust: 32.0 mph /  51.5 km/h - -
Wind:- - WSW
Pressure: 29.67 in /  1004.6 hPa 29.17 in /  987.7 hPa -
Precipitation: 0.16 in /  4.06 mm    
Historical Graphs
 
 
Tabular Data for January 15, 2018
Time Temperature Dew Point Pressure Wind Wind Speed Wind Gust Humidity Rainfall Rate (Hourly) solar Conditions
00:03 39.4 °F /  4.1 °C 37.5 °F /  3.1 °C 29.67 in /  1004.6 hPa SSW 10.0 mph /  16.1 km/h 14.0 mph /  22.5 km/h 93 % 0.02 in /  0.51 mm 0 W/m2
00:10 40.1 °F /  4.5 °C 38.2 °F /  3.4 °C 29.67 in /  1004.6 hPa SSW 10.0 mph /  16.1 km/h 21.0 mph /  33.8 km/h 93 % 0.02 in /  0.51 mm 0 W/m2
00:16 40.6 °F /  4.8 °C 38.8 °F /  3.8 °C 29.66 in /  1004.3 hPa SSW 13.0 mph /  20.9 km/h 20.0 mph /  32.2 km/h 93 % 0.02 in /  0.51 mm 0 W/m2
00:22 41.0 °F /  5 °C 39.1 °F /  3.9 °C 29.66 in /  1004.3 hPa SSW 12.0 mph /  19.3 km/h 20.0 mph /  32.2 km/h 93 % 0.02 in /  0.51 mm 0 W/m2
00:27 41.4 °F /  5.2 °C 39.5 °F /  4.2 °C 29.65 in /  1003.9 hPa SSW 14.0 mph /  22.5 km/h 24.0 mph /  38.6 km/h 93 % 0.02 in /  0.51 mm 0 W/m2
00:50 42.1 °F /  5.6 °C 39.6 °F /  4.2 °C 29.61 in /  1002.6 hPa SSW 17.0 mph /  27.4 km/h 32.0 mph /  51.5 km/h 91 % 0.02 in /  0.51 mm 0 W/m2
00:58 42.1 °F /  5.6 °C 39.6 °F /  4.2 °C 29.60 in /  1002.3 hPa SSW 18.0 mph /  29 km/h 25.0 mph /  40.2 km/h 91 % 0.02 in /  0.51 mm 0 W/m2
01:12 42.1 °F /  5.6 °C 39.6 °F /  4.2 °C 29.58 in /  1001.6 hPa SSW 18.0 mph /  29 km/h 31.0 mph /  49.9 km/h 91 % 0.02 in /  0.51 mm 0 W/m2
01:20 42.1 °F /  5.6 °C 39.6 °F /  4.2 °C 29.58 in /  1001.6 hPa SW 16.0 mph /  25.7 km/h 25.0 mph /  40.2 km/h 91 % 0.01 in /  0.25 mm 0 W/m2
01:33 41.9 °F /  5.5 °C 39.7 °F /  4.3 °C 29.57 in /  1001.2 hPa SSW 17.0 mph /  27.4 km/h 29.0 mph /  46.7 km/h 92 % 0.00 in /  0 mm 0 W/m2
01:38 41.9 °F /  5.5 °C 39.7 °F /  4.3 °C 29.57 in /  1001.2 hPa SSW 16.0 mph /  25.7 km/h 23.0 mph /  37 km/h 92 % 0.00 in /  0 mm 0 W/m2
01:43 41.7 °F /  5.4 °C 39.6 °F /  4.2 °C 29.56 in /  1000.9 hPa SSW 15.0 mph /  24.1 km/h 26.0 mph /  41.8 km/h 92 % 0.00 in /  0 mm 0 W/m2
01:49 41.7 °F /  5.4 °C 39.6 °F /  4.2 °C 29.56 in /  1000.9 hPa SW 16.0 mph /  25.7 km/h 24.0 mph /  38.6 km/h 92 % 0.00 in /  0 mm 0 W/m2
01:57 41.7 °F /  5.4 °C 39.6 °F /  4.2 °C 29.55 in /  1000.6 hPa SSW 16.0 mph /  25.7 km/h 26.0 mph /  41.8 km/h 92 % 0.00 in /  0 mm 0 W/m2
02:04 41.7 °F /  5.4 °C 39.6 °F /  4.2 °C 29.54 in /  1000.2 hPa SW 14.0 mph /  22.5 km/h 23.0 mph /  37 km/h 92 % 0.00 in /  0 mm 0 W/m2
02:11 41.7 °F /  5.4 °C 39.8 °F /  4.3 °C 29.53 in /  999.9 hPa SW 18.0 mph /  29 km/h 24.0 mph /  38.6 km/h 93 % 0.00 in /  0 mm 0 W/m2
02:32 41.9 °F /  5.5 °C 40.0 °F /  4.4 °C 29.51 in /  999.2 hPa SW 17.0 mph /  27.4 km/h 25.0 mph /  40.2 km/h 93 % 0.01 in /  0.25 mm 0 W/m2
02:38 42.1 °F /  5.6 °C 40.2 °F /  4.6 °C 29.51 in /  999.2 hPa SSW 14.0 mph /  22.5 km/h 25.0 mph /  40.2 km/h 93 % 0.01 in /  0.25 mm 0 W/m2
02:49 42.1 °F /  5.6 °C 40.2 °F /  4.6 °C 29.50 in /  998.9 hPa SSW 15.0 mph /  24.1 km/h 24.0 mph /  38.6 km/h 93 % 0.01 in /  0.25 mm 0 W/m2
02:58 42.3 °F /  5.7 °C 40.4 °F /  4.7 °C 29.49 in /  998.5 hPa SSW 17.0 mph /  27.4 km/h 24.0 mph /  38.6 km/h 93 % 0.01 in /  0.25 mm 0 W/m2
03:08 42.3 °F /  5.7 °C 40.4 °F /  4.7 °C 29.49 in /  998.5 hPa SSW 13.0 mph /  20.9 km/h 22.0 mph /  35.4 km/h 93 % 0.01 in /  0.25 mm 0 W/m2
03:16 42.4 °F /  5.8 °C 40.6 °F /  4.8 °C 29.48 in /  998.2 hPa SSW 15.0 mph /  24.1 km/h 25.0 mph /  40.2 km/h 93 % 0.01 in /  0.25 mm 0 W/m2
03:21 42.4 °F /  5.8 °C 40.6 °F /  4.8 °C 29.48 in /  998.2 hPa SSW 15.0 mph /  24.1 km/h 23.0 mph /  37 km/h 93 % 0.00 in /  0 mm 0 W/m2
03:26 42.4 °F /  5.8 °C 40.6 °F /  4.8 °C 29.47 in /  997.9 hPa SSW 15.0 mph /  24.1 km/h 28.0 mph /  45.1 km/h 93 % 0.00 in /  0 mm 0 W/m2
03:32 42.6 °F /  5.9 °C 40.7 °F /  4.8 °C 29.47 in /  997.9 hPa SW 15.0 mph /  24.1 km/h 23.0 mph /  37 km/h 93 % 0.00 in /  0 mm 0 W/m2
03:47 42.8 °F /  6 °C 40.9 °F /  4.9 °C 29.45 in /  997.2 hPa SSW 20.0 mph /  32.2 km/h 28.0 mph /  45.1 km/h 93 % 0.01 in /  0.25 mm 0 W/m2
03:56 43.0 °F /  6.1 °C 41.1 °F /  5.1 °C 29.44 in /  996.8 hPa SSW 17.0 mph /  27.4 km/h 25.0 mph /  40.2 km/h 93 % 0.01 in /  0.25 mm 0 W/m2
04:16 43.2 °F /  6.2 °C 41.3 °F /  5.2 °C 29.42 in /  996.2 hPa SSW 14.0 mph /  22.5 km/h 24.0 mph /  38.6 km/h 93 % 0.01 in /  0.25 mm 0 W/m2
04:23 43.2 °F /  6.2 °C 41.3 °F /  5.2 °C 29.42 in /  996.2 hPa SSW 12.0 mph /  19.3 km/h 22.0 mph /  35.4 km/h 93 % 0.02 in /  0.51 mm 0 W/m2
04:28 43.2 °F /  6.2 °C 41.3 °F /  5.2 °C 29.41 in /  995.8 hPa SSW 12.0 mph /  19.3 km/h 22.0 mph /  35.4 km/h 93 % 0.02 in /  0.51 mm 0 W/m2
04:44 43.5 °F /  6.4 °C 41.6 °F /  5.3 °C 29.40 in /  995.5 hPa SSW 14.0 mph /  22.5 km/h 26.0 mph /  41.8 km/h 93 % 0.01 in /  0.25 mm 0 W/m2
04:52 43.7 °F /  6.5 °C 41.8 °F /  5.4 °C 29.40 in /  995.5 hPa SW 19.0 mph /  30.6 km/h 25.0 mph /  40.2 km/h 93 % 0.01 in /  0.25 mm 0 W/m2
04:57 43.9 °F /  6.6 °C 42.0 °F /  5.6 °C 29.39 in /  995.1 hPa SSW 15.0 mph /  24.1 km/h 23.0 mph /  37 km/h 93 % 0.01 in /  0.25 mm 0 W/m2
05:07 43.9 °F /  6.6 °C 42.0 °F /  5.6 °C 29.38 in /  994.8 hPa SW 16.0 mph /  25.7 km/h 22.0 mph /  35.4 km/h 93 % 0.01 in /  0.25 mm 0 W/m2
05:13 43.9 °F /  6.6 °C 42.0 °F /  5.6 °C 29.38 in /  994.8 hPa SW 13.0 mph /  20.9 km/h 20.0 mph /  32.2 km/h 93 % 0.01 in /  0.25 mm 0 W/m2
05:23 44.1 °F /  6.7 °C 42.2 °F /  5.7 °C 29.37 in /  994.5 hPa SSW 13.0 mph /  20.9 km/h 21.0 mph /  33.8 km/h 93 % 0.00 in /  0 mm 0 W/m2
05:47 44.2 °F /  6.8 °C 42.6 °F /  5.9 °C 29.36 in /  994.1 hPa SSW 12.0 mph /  19.3 km/h 16.0 mph /  25.7 km/h 94 % 0.00 in /  0 mm 0 W/m2
05:57 44.6 °F /  7 °C 43.0 °F /  6.1 °C 29.35 in /  993.8 hPa SSW 12.0 mph /  19.3 km/h 21.0 mph /  33.8 km/h 94 % 0.00 in /  0 mm 0 W/m2
06:02 44.6 °F /  7 °C 43.0 °F /  6.1 °C 29.35 in /  993.8 hPa SSW 13.0 mph /  20.9 km/h 24.0 mph /  38.6 km/h 94 % 0.00 in /  0 mm 0 W/m2
06:14 44.8 °F /  7.1 °C 43.2 °F /  6.2 °C 29.34 in /  993.5 hPa SSW 14.0 mph /  22.5 km/h 23.0 mph /  37 km/h 94 % 0.00 in /  0 mm 0 W/m2
06:29 45.0 °F /  7.2 °C 43.3 °F /  6.3 °C 29.33 in /  993.1 hPa SW 14.0 mph /  22.5 km/h 22.0 mph /  35.4 km/h 94 % 0.00 in /  0 mm 0 W/m2
06:39 45.0 °F /  7.2 °C 43.3 °F /  6.3 °C 29.32 in /  992.8 hPa SW 13.0 mph /  20.9 km/h 21.0 mph /  33.8 km/h 94 % 0.00 in /  0 mm 0 W/m2
06:44 45.0 °F /  7.2 °C 43.3 °F /  6.3 °C 29.32 in /  992.8 hPa SW 11.0 mph /  17.7 km/h 18.0 mph /  29 km/h 94 % 0.00 in /  0 mm 0 W/m2
06:50 45.0 °F /  7.2 °C 43.3 °F /  6.3 °C 29.31 in /  992.4 hPa SW 13.0 mph /  20.9 km/h 20.0 mph /  32.2 km/h 94 % 0.00 in /  0 mm 0 W/m2
06:57 45.0 °F /  7.2 °C 43.3 °F /  6.3 °C 29.31 in /  992.4 hPa SW 12.0 mph /  19.3 km/h 16.0 mph /  25.7 km/h 94 % 0.00 in /  0 mm 0 W/m2
07:07 45.1 °F /  7.3 °C 43.2 °F /  6.2 °C 29.30 in /  992.1 hPa SW 12.0 mph /  19.3 km/h 20.0 mph /  32.2 km/h 93 % 0.00 in /  0 mm 0 W/m2
07:20 45.3 °F /  7.4 °C 43.4 °F /  6.3 °C 29.29 in /  991.8 hPa SW 12.0 mph /  19.3 km/h 16.0 mph /  25.7 km/h 93 % 0.00 in /  0 mm 0 W/m2
07:27 45.5 °F /  7.5 °C 43.6 °F /  6.4 °C 29.29 in /  991.8 hPa SW 12.0 mph /  19.3 km/h 19.0 mph /  30.6 km/h 93 % 0.00 in /  0 mm 0 W/m2
07:39 45.9 °F /  7.7 °C 44.2 °F /  6.8 °C 29.28 in /  991.4 hPa SW 10.0 mph /  16.1 km/h 15.0 mph /  24.1 km/h 94 % 0.00 in /  0 mm 0 W/m2
07:46 46.0 °F /  7.8 °C 44.4 °F /  6.9 °C 29.28 in /  991.4 hPa SSW 6.0 mph /  9.7 km/h 13.0 mph /  20.9 km/h 94 % 0.00 in /  0 mm 0 W/m2
07:53 46.0 °F /  7.8 °C 44.4 °F /  6.9 °C 29.27 in /  991.1 hPa SSW 6.0 mph /  9.7 km/h 12.0 mph /  19.3 km/h 94 % 0.00 in /  0 mm 0 W/m2
08:13 46.2 °F /  7.9 °C 44.6 °F /  7 °C 29.28 in /  991.4 hPa SW 6.0 mph /  9.7 km/h 11.0 mph /  17.7 km/h 94 % 0.00 in /  0 mm 5 W/m2
08:20 46.6 °F /  8.1 °C 44.9 °F /  7.2 °C 29.27 in /  991.1 hPa SSW 2.0 mph /  3.2 km/h 8.0 mph /  12.9 km/h 94 % 0.00 in /  0 mm 5 W/m2
08:38 46.8 °F /  8.2 °C 45.1 °F /  7.3 °C 29.27 in /  991.1 hPa SW 6.0 mph /  9.7 km/h 11.0 mph /  17.7 km/h 94 % 0.00 in /  0 mm 25 W/m2
08:58 47.8 °F /  8.8 °C 45.9 °F /  7.7 °C 29.27 in /  991.1 hPa SW 9.0 mph /  14.5 km/h 13.0 mph /  20.9 km/h 93 % 0.00 in /  0 mm 19 W/m2
09:06 47.8 °F /  8.8 °C 45.9 °F /  7.7 °C 29.27 in /  991.1 hPa SW 8.0 mph /  12.9 km/h 14.0 mph /  22.5 km/h 93 % 0.01 in /  0.25 mm 25 W/m2
09:12 47.8 °F /  8.8 °C 45.9 °F /  7.7 °C 29.26 in /  990.7 hPa SW 6.0 mph /  9.7 km/h 10.0 mph /  16.1 km/h 93 % 0.01 in /  0.25 mm 16 W/m2
09:17 47.8 °F /  8.8 °C 45.9 °F /  7.7 °C 29.26 in /  990.7 hPa SW 9.0 mph /  14.5 km/h 13.0 mph /  20.9 km/h 93 % 0.01 in /  0.25 mm 37 W/m2
09:28 48.2 °F /  9 °C 46.6 °F /  8.1 °C 29.26 in /  990.7 hPa SW 9.0 mph /  14.5 km/h 13.0 mph /  20.9 km/h 94 % 0.02 in /  0.51 mm 93 W/m2
09:35 48.6 °F /  9.2 °C 46.9 °F /  8.3 °C 29.25 in /  990.4 hPa SW 10.0 mph /  16.1 km/h 13.0 mph /  20.9 km/h 94 % 0.02 in /  0.51 mm 86 W/m2
09:48 48.7 °F /  9.3 °C 46.8 °F /  8.2 °C 29.24 in /  990.1 hPa WSW 10.0 mph /  16.1 km/h 14.0 mph /  22.5 km/h 93 % 0.02 in /  0.51 mm 46 W/m2
09:54 48.9 °F /  9.4 °C 46.7 °F /  8.2 °C 29.24 in /  990.1 hPa WSW 9.0 mph /  14.5 km/h 12.0 mph /  19.3 km/h 92 % 0.02 in /  0.51 mm 51 W/m2
10:07 49.5 °F /  9.7 °C 46.9 °F /  8.3 °C 29.23 in /  989.7 hPa WSW 11.0 mph /  17.7 km/h 20.0 mph /  32.2 km/h 91 % 0.01 in /  0.25 mm 171 W/m2
10:12 49.6 °F /  9.8 °C 47.1 °F /  8.4 °C 29.23 in /  989.7 hPa West 7.0 mph /  11.3 km/h 14.0 mph /  22.5 km/h 91 % 0.01 in /  0.25 mm 257 W/m2
10:26 49.8 °F /  9.9 °C 47.0 °F /  8.3 °C 29.22 in /  989.4 hPa WSW 8.0 mph /  12.9 km/h 12.0 mph /  19.3 km/h 90 % 0.00 in /  0 mm 70 W/m2
10:33 49.6 °F /  9.8 °C 46.5 °F /  8.1 °C 29.22 in /  989.4 hPa West 11.0 mph /  17.7 km/h 15.0 mph /  24.1 km/h 89 % 0.00 in /  0 mm 69 W/m2
10:38 49.6 °F /  9.8 °C 46.2 °F /  7.9 °C 29.21 in /  989.1 hPa West 15.0 mph /  24.1 km/h 25.0 mph /  40.2 km/h 88 % 0.00 in /  0 mm 69 W/m2
10:48 49.8 °F /  9.9 °C 46.7 °F /  8.2 °C 29.21 in /  989.1 hPa West 10.0 mph /  16.1 km/h 18.0 mph /  29 km/h 89 % 0.00 in /  0 mm 192 W/m2
11:08 49.6 °F /  9.8 °C 46.5 °F /  8.1 °C 29.20 in /  988.7 hPa West 9.0 mph /  14.5 km/h 15.0 mph /  24.1 km/h 89 % 0.00 in /  0 mm 47 W/m2
11:17 49.3 °F /  9.6 °C 46.5 °F /  8.1 °C 29.21 in /  989.1 hPa WNW 10.0 mph /  16.1 km/h 15.0 mph /  24.1 km/h 90 % 0.01 in /  0.25 mm 30 W/m2
11:24 48.6 °F /  9.2 °C 46.1 °F /  7.8 °C 29.21 in /  989.1 hPa West 12.0 mph /  19.3 km/h 21.0 mph /  33.8 km/h 91 % 0.02 in /  0.51 mm 28 W/m2
11:29 47.8 °F /  8.8 °C 45.3 °F /  7.4 °C 29.21 in /  989.1 hPa WNW 12.0 mph /  19.3 km/h 20.0 mph /  32.2 km/h 91 % 0.02 in /  0.51 mm 47 W/m2
11:40 47.1 °F /  8.4 °C 44.6 °F /  7 °C 29.20 in /  988.7 hPa West 9.0 mph /  14.5 km/h 14.0 mph /  22.5 km/h 91 % 0.03 in /  0.76 mm 72 W/m2
12:06 46.9 °F /  8.3 °C 44.7 °F /  7.1 °C 29.18 in /  988 hPa West 7.0 mph /  11.3 km/h 13.0 mph /  20.9 km/h 92 % 0.04 in /  1.02 mm 142 W/m2
12:12 47.1 °F /  8.4 °C 44.9 °F /  7.2 °C 29.18 in /  988 hPa WNW 5.0 mph /  8 km/h 11.0 mph /  17.7 km/h 92 % 0.04 in /  1.02 mm 137 W/m2
12:20 47.7 °F /  8.7 °C 45.7 °F /  7.6 °C 29.18 in /  988 hPa WNW 8.0 mph /  12.9 km/h 13.0 mph /  20.9 km/h 93 % 0.02 in /  0.51 mm 88 W/m2
12:27 47.7 °F /  8.7 °C 45.5 °F /  7.5 °C 29.18 in /  988 hPa WNW 9.0 mph /  14.5 km/h 18.0 mph /  29 km/h 92 % 0.02 in /  0.51 mm 76 W/m2
12:36 47.7 °F /  8.7 °C 45.5 °F /  7.5 °C 29.18 in /  988 hPa WNW 12.0 mph /  19.3 km/h 23.0 mph /  37 km/h 92 % 0.01 in /  0.25 mm 139 W/m2
12:43 47.7 °F /  8.7 °C 45.5 °F /  7.5 °C 29.18 in /  988 hPa WNW 9.0 mph /  14.5 km/h 15.0 mph /  24.1 km/h 92 % 0.01 in /  0.25 mm 76 W/m2
12:48 47.7 °F /  8.7 °C 45.2 °F /  7.3 °C 29.18 in /  988 hPa WNW 10.0 mph /  16.1 km/h 13.0 mph /  20.9 km/h 91 % 0.01 in /  0.25 mm 56 W/m2
12:54 47.5 °F /  8.6 °C 45.0 °F /  7.2 °C 29.18 in /  988 hPa WNW 8.0 mph /  12.9 km/h 14.0 mph /  22.5 km/h 91 % 0.00 in /  0 mm 51 W/m2
13:10 47.5 °F /  8.6 °C 44.7 °F /  7.1 °C 29.17 in /  987.7 hPa WNW 13.0 mph /  20.9 km/h 22.0 mph /  35.4 km/h 90 % 0.00 in /  0 mm 304 W/m2
13:15 47.5 °F /  8.6 °C 44.4 °F /  6.9 °C 29.17 in /  987.7 hPa WNW 14.0 mph /  22.5 km/h 23.0 mph /  37 km/h 89 % 0.00 in /  0 mm 60 W/m2
13:20 47.3 °F /  8.5 °C 43.9 °F /  6.6 °C 29.18 in /  988 hPa WNW 15.0 mph /  24.1 km/h 25.0 mph /  40.2 km/h 88 % 0.00 in /  0 mm 56 W/m2
13:27 46.9 °F /  8.3 °C 43.3 °F /  6.3 °C 29.18 in /  988 hPa WNW 14.0 mph /  22.5 km/h 21.0 mph /  33.8 km/h 87 % 0.00 in /  0 mm 83 W/m2
13:34 46.6 °F /  8.1 °C 42.6 °F /  5.9 °C 29.18 in /  988 hPa WNW 18.0 mph /  29 km/h 28.0 mph /  45.1 km/h 86 % 0.00 in /  0 mm 72 W/m2
13:39 46.8 °F /  8.2 °C 42.8 °F /  6 °C 29.18 in /  988 hPa WNW 15.0 mph /  24.1 km/h 22.0 mph /  35.4 km/h 86 % 0.00 in /  0 mm 244 W/m2
13:49 46.9 °F /  8.3 °C 43.0 °F /  6.1 °C 29.18 in /  988 hPa WNW 15.0 mph /  24.1 km/h 28.0 mph /  45.1 km/h 86 % 0.00 in /  0 mm 237 W/m2
14:02 46.2 °F /  7.9 °C 42.3 °F /  5.7 °C 29.18 in /  988 hPa WNW 15.0 mph /  24.1 km/h 24.0 mph /  38.6 km/h 86 % 0.00 in /  0 mm 39 W/m2
14:07 46.0 °F /  7.8 °C 42.1 °F /  5.6 °C 29.18 in /  988 hPa WNW 15.0 mph /  24.1 km/h 21.0 mph /  33.8 km/h 86 % 0.00 in /  0 mm 46 W/m2
14:13 45.9 °F /  7.7 °C 42.2 °F /  5.7 °C 29.19 in /  988.4 hPa WNW 15.0 mph /  24.1 km/h 23.0 mph /  37 km/h 87 % 0.00 in /  0 mm 62 W/m2
14:21 45.7 °F /  7.6 °C 42.0 °F /  5.6 °C 29.18 in /  988 hPa WNW 14.0 mph /  22.5 km/h 23.0 mph /  37 km/h 87 % 0.00 in /  0 mm 33 W/m2
14:51 45.7 °F /  7.6 °C 41.4 °F /  5.2 °C 29.19 in /  988.4 hPa WNW 13.0 mph /  20.9 km/h 23.0 mph /  37 km/h 85 % 0.00 in /  0 mm 83 W/m2
14:57 45.5 °F /  7.5 °C 41.3 °F /  5.2 °C 29.19 in /  988.4 hPa WNW 13.0 mph /  20.9 km/h 20.0 mph /  32.2 km/h 85 % 0.00 in /  0 mm 46 W/m2
15:25 44.6 °F /  7 °C 39.8 °F /  4.3 °C 29.19 in /  988.4 hPa West 11.0 mph /  17.7 km/h 21.0 mph /  33.8 km/h 83 % 0.00 in /  0 mm 16 W/m2
15:47 43.5 °F /  6.4 °C 39.3 °F /  4.1 °C 29.19 in /  988.4 hPa WNW 14.0 mph /  22.5 km/h 24.0 mph /  38.6 km/h 85 % 0.00 in /  0 mm 12 W/m2
16:02 43.3 °F /  6.3 °C 39.4 °F /  4.1 °C 29.19 in /  988.4 hPa West 16.0 mph /  25.7 km/h 24.0 mph /  38.6 km/h 86 % 0.00 in /  0 mm 9 W/m2
16:14 43.3 °F /  6.3 °C 39.1 °F /  3.9 °C 29.19 in /  988.4 hPa West 16.0 mph /  25.7 km/h 28.0 mph /  45.1 km/h 85 % 0.00 in /  0 mm 5 W/m2
16:37 43.2 °F /  6.2 °C 39.0 °F /  3.9 °C 29.20 in /  988.7 hPa WNW 15.0 mph /  24.1 km/h 23.0 mph /  37 km/h 85 % 0.00 in /  0 mm 0 W/m2
16:44 43.0 °F /  6.1 °C 38.8 °F /  3.8 °C 29.20 in /  988.7 hPa WNW 13.0 mph /  20.9 km/h 21.0 mph /  33.8 km/h 85 % 0.00 in /  0 mm 0 W/m2
16:56 43.0 °F /  6.1 °C 38.8 °F /  3.8 °C 29.21 in /  989.1 hPa WNW 12.0 mph /  19.3 km/h 27.0 mph /  43.5 km/h 85 % 0.00 in /  0 mm 0 W/m2
17:01 43.2 °F /  6.2 °C 39.0 °F /  3.9 °C 29.21 in /  989.1 hPa West 13.0 mph /  20.9 km/h 22.0 mph /  35.4 km/h 85 % 0.00 in /  0 mm 0 W/m2
17:24 43.0 °F /  6.1 °C 39.4 °F /  4.1 °C 29.21 in /  989.1 hPa West 9.0 mph /  14.5 km/h 13.0 mph /  20.9 km/h 87 % 0.00 in /  0 mm 0 W/m2
17:31 42.6 °F /  5.9 °C 39.0 °F /  3.9 °C 29.21 in /  989.1 hPa West 11.0 mph /  17.7 km/h 16.0 mph /  25.7 km/h 87 % 0.00 in /  0 mm 0 W/m2
17:42 42.3 °F /  5.7 °C 38.4 °F /  3.6 °C 29.20 in /  988.7 hPa West 12.0 mph /  19.3 km/h 21.0 mph /  33.8 km/h 86 % 0.00 in /  0 mm 0 W/m2
18:00 41.9 °F /  5.5 °C 38.0 °F /  3.3 °C 29.20 in /  988.7 hPa West 12.0 mph /  19.3 km/h 18.0 mph /  29 km/h 86 % 0.00 in /  0 mm 0 W/m2
18:14 41.9 °F /  5.5 °C 38.3 °F /  3.5 °C 29.20 in /  988.7 hPa West 9.0 mph /  14.5 km/h 15.0 mph /  24.1 km/h 87 % 0.00 in /  0 mm 0 W/m2
18:23 42.1 °F /  5.6 °C 38.5 °F /  3.6 °C 29.20 in /  988.7 hPa West 9.0 mph /  14.5 km/h 12.0 mph /  19.3 km/h 87 % 0.00 in /  0 mm 0 W/m2
18:43 41.5 °F /  5.3 °C 37.7 °F /  3.2 °C 29.20 in /  988.7 hPa West 10.0 mph /  16.1 km/h 16.0 mph /  25.7 km/h 86 % 0.00 in /  0 mm 0 W/m2
18:48 41.5 °F /  5.3 °C 37.7 °F /  3.2 °C 29.20 in /  988.7 hPa West 9.0 mph /  14.5 km/h 15.0 mph /  24.1 km/h 86 % 0.00 in /  0 mm 0 W/m2
18:53 41.5 °F /  5.3 °C 37.7 °F /  3.2 °C 29.20 in /  988.7 hPa West 12.0 mph /  19.3 km/h 21.0 mph /  33.8 km/h 86 % 0.00 in /  0 mm 0 W/m2
19:02 41.7 °F /  5.4 °C 37.8 °F /  3.2 °C 29.20 in /  988.7 hPa West 10.0 mph /  16.1 km/h 14.0 mph /  22.5 km/h 86 % 0.00 in /  0 mm 0 W/m2
19:10 41.7 °F /  5.4 °C 37.8 °F /  3.2 °C 29.20 in /  988.7 hPa West 18.0 mph /  29 km/h 27.0 mph /  43.5 km/h 86 % 0.00 in /  0 mm 0 W/m2
19:18 41.5 °F /  5.3 °C 38.0 °F /  3.3 °C 29.20 in /  988.7 hPa West 14.0 mph /  22.5 km/h 26.0 mph /  41.8 km/h 87 % 0.00 in /  0 mm 0 W/m2
19:23 41.4 °F /  5.2 °C 37.8 °F /  3.2 °C 29.20 in /  988.7 hPa West 13.0 mph /  20.9 km/h 20.0 mph /  32.2 km/h 87 % 0.00 in /  0 mm 0 W/m2
19:29 41.2 °F /  5.1 °C 37.6 °F /  3.1 °C 29.20 in /  988.7 hPa West 13.0 mph /  20.9 km/h 21.0 mph /  33.8 km/h 87 % 0.00 in /  0 mm 0 W/m2
19:49 40.6 °F /  4.8 °C 36.8 °F /  2.7 °C 29.20 in /  988.7 hPa West 10.0 mph /  16.1 km/h 15.0 mph /  24.1 km/h 86 % 0.00 in /  0 mm 0 W/m2
19:57 40.5 °F /  4.7 °C 36.6 °F /  2.6 °C 29.20 in /  988.7 hPa West 9.0 mph /  14.5 km/h 14.0 mph /  22.5 km/h 86 % 0.00 in /  0 mm 0 W/m2
20:04 40.3 °F /  4.6 °C 36.4 °F /  2.4 °C 29.20 in /  988.7 hPa West 11.0 mph /  17.7 km/h 18.0 mph /  29 km/h 86 % 0.00 in /  0 mm 0 W/m2
20:14 40.3 °F /  4.6 °C 36.7 °F /  2.6 °C 29.19 in /  988.4 hPa West 12.0 mph /  19.3 km/h 21.0 mph /  33.8 km/h 87 % 0.00 in /  0 mm 0 W/m2
20:25 40.3 °F /  4.6 °C 37.0 °F /  2.8 °C 29.18 in /  988 hPa West 12.0 mph /  19.3 km/h 19.0 mph /  30.6 km/h 88 % 0.00 in /  0 mm 0 W/m2
20:37 40.3 °F /  4.6 °C 37.0 °F /  2.8 °C 29.18 in /  988 hPa WSW 11.0 mph /  17.7 km/h 15.0 mph /  24.1 km/h 88 % 0.00 in /  0 mm 0 W/m2
20:46 40.5 °F /  4.7 °C 37.2 °F /  2.9 °C 29.18 in /  988 hPa West 14.0 mph /  22.5 km/h 25.0 mph /  40.2 km/h 88 % 0.00 in /  0 mm 0 W/m2
20:47 40.5 °F /  4.7 °C 37.2 °F /  2.9 °C 29.18 in /  988 hPa West 14.0 mph /  22.5 km/h 25.0 mph /  40.2 km/h 88 % 0.00 in /  0 mm 0 W/m2
20:48 40.5 °F /  4.7 °C 37.2 °F /  2.9 °C 29.19 in /  988.4 hPa WSW 13.0 mph /  20.9 km/h 19.0 mph /  30.6 km/h 88 % 0.00 in /  0 mm 0 W/m2
20:49 40.5 °F /  4.7 °C 37.2 °F /  2.9 °C 29.19 in /  988.4 hPa WSW 12.0 mph /  19.3 km/h 19.0 mph /  30.6 km/h 88 % 0.00 in /  0 mm 0 W/m2
20:50 40.5 °F /  4.7 °C 36.9 °F /  2.7 °C 29.19 in /  988.4 hPa WSW 12.0 mph /  19.3 km/h 19.0 mph /  30.6 km/h 87 % 0.00 in /  0 mm 0 W/m2
20:51 40.5 °F /  4.7 °C 36.9 °F /  2.7 °C 29.19 in /  988.4 hPa West 12.0 mph /  19.3 km/h 22.0 mph /  35.4 km/h 87 % 0.00 in /  0 mm 0 W/m2
20:52 40.5 °F /  4.7 °C 36.9 °F /  2.7 °C 29.19 in /  988.4 hPa West 13.0 mph /  20.9 km/h 22.0 mph /  35.4 km/h 87 % 0.00 in /  0 mm 0 W/m2
20:56 40.5 °F /  4.7 °C 36.9 °F /  2.7 °C 29.19 in /  988.4 hPa WSW 11.0 mph /  17.7 km/h 19.0 mph /  30.6 km/h 87 % 0.00 in /  0 mm 0 W/m2
21:02 40.1 °F /  4.5 °C 36.8 °F /  2.7 °C 29.18 in /  988 hPa WSW 11.0 mph /  17.7 km/h 19.0 mph /  30.6 km/h 88 % 0.00 in /  0 mm 0 W/m2
21:06 39.9 °F /  4.4 °C 36.7 °F /  2.6 °C 29.18 in /  988 hPa WSW 11.0 mph /  17.7 km/h 16.0 mph /  25.7 km/h 88 % 0.00 in /  0 mm 0 W/m2
21:07 39.7 °F /  4.3 °C 36.5 °F /  2.5 °C 29.18 in /  988 hPa WSW 10.0 mph /  16.1 km/h 14.0 mph /  22.5 km/h 88 % 0.00 in /  0 mm 0 W/m2
21:16 39.7 °F /  4.3 °C 36.8 °F /  2.7 °C 29.18 in /  988 hPa West 10.0 mph /  16.1 km/h 20.0 mph /  32.2 km/h 89 % 0.00 in /  0 mm 0 W/m2
21:23 39.9 °F /  4.4 °C 37.2 °F /  2.9 °C 29.18 in /  988 hPa WSW 11.0 mph /  17.7 km/h 18.0 mph /  29 km/h 90 % 0.00 in /  0 mm 0 W/m2
21:29 39.9 °F /  4.4 °C 37.2 °F /  2.9 °C 29.18 in /  988 hPa WSW 8.0 mph /  12.9 km/h 13.0 mph /  20.9 km/h 90 % 0.00 in /  0 mm 0 W/m2
21:37 40.3 °F /  4.6 °C 37.6 °F /  3.1 °C 29.18 in /  988 hPa West 13.0 mph /  20.9 km/h 21.0 mph /  33.8 km/h 90 % 0.00 in /  0 mm 0 W/m2
21:48 40.5 °F /  4.7 °C 37.5 °F /  3.1 °C 29.19 in /  988.4 hPa West 14.0 mph /  22.5 km/h 21.0 mph /  33.8 km/h 89 % 0.00 in /  0 mm 0 W/m2
21:56 40.5 °F /  4.7 °C 37.5 °F /  3.1 °C 29.18 in /  988 hPa West 10.0 mph /  16.1 km/h 16.0 mph /  25.7 km/h 89 % 0.00 in /  0 mm 0 W/m2
22:01 40.5 °F /  4.7 °C 37.5 °F /  3.1 °C 29.18 in /  988 hPa WSW 9.0 mph /  14.5 km/h 14.0 mph /  22.5 km/h 89 % 0.00 in /  0 mm 0 W/m2
22:12 40.6 °F /  4.8 °C 37.7 °F /  3.2 °C 29.18 in /  988 hPa West 10.0 mph /  16.1 km/h 15.0 mph /  24.1 km/h 89 % 0.00 in /  0 mm 0 W/m2
22:32 39.7 °F /  4.3 °C 37.0 °F /  2.8 °C 29.18 in /  988 hPa West 7.0 mph /  11.3 km/h 10.0 mph /  16.1 km/h 90 % 0.00 in /  0 mm 0 W/m2
22:38 39.6 °F /  4.2 °C 37.2 °F /  2.9 °C 29.19 in /  988.4 hPa West 9.0 mph /  14.5 km/h 13.0 mph /  20.9 km/h 91 % 0.00 in /  0 mm 0 W/m2
22:44 39.6 °F /  4.2 °C 37.2 °F /  2.9 °C 29.20 in /  988.7 hPa WNW 15.0 mph /  24.1 km/h 28.0 mph /  45.1 km/h 91 % 0.02 in /  0.51 mm 0 W/m2
22:50 38.7 °F /  3.7 °C 36.3 °F /  2.4 °C 29.20 in /  988.7 hPa West 16.0 mph /  25.7 km/h 24.0 mph /  38.6 km/h 91 % 0.04 in /  1.02 mm 0 W/m2
23:05 37.9 °F /  3.3 °C 35.8 °F /  2.1 °C 29.18 in /  988 hPa WNW 9.0 mph /  14.5 km/h 14.0 mph /  22.5 km/h 92 % 0.05 in /  1.27 mm 0 W/m2
23:29 37.9 °F /  3.3 °C 36.1 °F /  2.3 °C 29.17 in /  987.7 hPa WSW 10.0 mph /  16.1 km/h 18.0 mph /  29 km/h 93 % 0.06 in /  1.52 mm 0 W/m2
23:41 39.0 °F /  3.9 °C 36.9 °F /  2.7 °C 29.17 in /  987.7 hPa West 13.0 mph /  20.9 km/h 23.0 mph /  37 km/h 92 % 0.05 in /  1.27 mm 0 W/m2
23:54 39.6 °F /  4.2 °C 37.2 °F /  2.9 °C 29.18 in /  988 hPa West 15.0 mph /  24.1 km/h 22.0 mph /  35.4 km/h 91 % 0.01 in /  0.25 mm 0 W/m2
Delerius-Weather
Compliments of Weather Underground - 1.5 mb

Data updates at regular intervals.